View Sortable Currents For Network
ASOSCoCoRaHSCOOPCellular COOPDCPISU Soil Moisture
OtherSCANMy FavoritesBy StateRWISRWIS Surface
RWIS TrafficRWIS SoilBy NWS WFOUSCRN

Current SCAN Conditions

Sorted by: (Station ID)     Click on a column to sort it. Timestamps are in the local station's timezone.
ADD: Station: Ob Time Temps °F   Wind [knots]  
Air (Hi / Lo) DewP Feels RH% Speed Direction Gust @Time Solar Rad
LindsayJul-18-2024 12:00 AM 67(67/67) 56 67 67
Orchard Range SiteJul-18-2024 12:00 AM 76(76/76) 44 76 32
Table MountainJul-18-2024 12:00 AM 78(78/78) 44 78 30
Rodgers FarmJul-18-2024 01:00 AM 59(61/59) 58 59 97 2
Crescent Lake No1Jul-18-2024 01:00 AM 58(58/58) 56 58 95 0
Wabeno #1Jul-18-2024 01:00 AM 52(52/52) 49 52 88 1
MasonJul-18-2024 01:00 AM 63(63/62) 58 63 83 3
Princeton #1Jul-18-2024 01:00 AM 73(75/73) 69 73 89 7
Bushland #1Jul-18-2024 01:00 AM 73(73/73) 63 73 70 10
Tidewater #1Jul-18-2024 02:00 AM 75(80/75) 74 75 98 9
Wakulla #1Jul-18-2024 02:00 AM 75(76/75) 74 75 96 2
Geneva #1Jul-18-2024 02:00 AM 65(66/65) 61 65 88 4
Sellers Lake #1Jul-18-2024 02:00 AM 73(75/73) 72 73 98 1
Watkinsville #1Jul-18-2024 02:00 AM 73(75/73) 70 73 89 5
Molly Caren #1Jul-18-2024 02:00 AM 65(67/65) 59 65 80 9
Adams Ranch #1Jul-18-2024 12:00 AM 64(64/64) 57 64 78
Prairie View #1Jul-18-2024 01:00 AM 78(78/78) 75 78 92 5
Nunn #1Jul-18-2024 12:00 AM 57(57/57) 49 57 75
Torrington #1Jul-18-2024 12:00 AM 59(59/59) 54 59 84
Fort Assiniboine #1Jul-18-2024 12:00 AM 76(76/76) 49 76 39
Mandan #1Jul-18-2024 02:00 AM 62(65/62) 57 62 84 8
Lind #1Jul-17-2024 11:00 PM 80(100/67) 44 79 28 33
Fort Reno #1Jul-18-2024 01:00 AM 70(72/70) 68 70 94 3
Goodwin Ck PastureJul-18-2024 01:00 AM 73(74/73) 71 73 94 11
Goodwin Ck TimberJul-18-2024 01:00 AM 73(73/73) 73 73 98 2
Walnut Gulch #1Jul-17-2024 11:00 PM 80(97/66) 58 80 47 14
Little RiverJul-18-2024 02:00 AM 73(74/73) 72 73 97 3
Mahantango CkJul-18-2024 02:00 AM 68(69/68) 68 68 99 2
Uapb-Lonoke FarmJul-18-2024 01:00 AM 76(77/76) 71 76 85 8
AmesJul-18-2024 01:00 AM 57(58/57) 55 57 96 1
Beasley LakeJul-18-2024 01:00 AM 75(76/75) 71 75 88 7
OnwardJul-18-2024 01:00 AM 77(82/77) 71 77 82 11
TunicaJul-18-2024 01:00 AM 78(78/77) 73 78 87 11
VanceJul-18-2024 01:00 AM 73(73/73) 71 73 96 10
Rock Springs PaJul-18-2024 02:00 AM 67(68/67) 66 67 97 5
Pee DeeJul-18-2024 02:00 AM 75(75/75) 73 75 93 7
Youmans FarmJul-18-2024 02:00 AM 74(75/74) 73 74 96 5
N Piedmont ArecJul-18-2024 02:00 AM 73(74/73) 72 73 97 10
Mount MansfieldJul-18-2024 02:00 AM 61(62/61) 61 61 99
Lye BrookJul-18-2024 02:00 AM 64(65/64) 64 64 100
Mascoma RiverJul-18-2024 02:00 AM 69(70/69) 69 69 100
PerthshireJul-18-2024 01:00 AM 73(74/73) 71 73 92 15
SpickardJul-18-2024 01:00 AM 61(65/61) 58 61 88 2
DexterJul-18-2024 01:00 AM 74(74/74) 67 74 78 6
Powder MillJul-18-2024 02:00 AM 74(75/74) 73 74 99 1
Glacial RidgeJul-10-2024 12:00 PM 79(79/60) 63 79 58 8
Everglades ARSJul-18-2024 02:00 AM 80(82/80) 77 80 91 5
WtarsJul-18-2024 01:00 AM 73(74/73) 72 73 95 5
HodgesJul-18-2024 01:00 AM 71(72/71) 70 71 96 1
Stanley FarmJul-18-2024 01:00 AM 73(73/73) 71 73 94 2
AAMU-JTGJul-18-2024 01:00 AM 72(73/72) 71 72 97 1
Mt VernonJul-18-2024 01:00 AM 69(70/69) 65 69 87 3
Powell GardensJul-18-2024 01:00 AM 68(68/68) 61 68 80 1
StarkvilleJul-18-2024 01:00 AM 74(74/74) 72 74 93 5
Bosque SecoJul-18-2024 01:00 AM 80(80/80) 73 80 80
SHAGBARK HILLSJul-18-2024 01:00 AM 60(60/60) 52 60 77 1
Hubbard BrookJul-18-2024 02:00 AM 67(69/67) 67 67 100 1
ScottJul-18-2024 01:00 AM 74(74/74) 72 74 94 11
Eros Data CenterJul-18-2024 01:00 AM 59(60/59) 52 59 77 4
McAllister FarmJul-18-2024 01:00 AM 74(74/74) 72 74 96 2
Allen FarmsJul-18-2024 01:00 AM 75(75/75) 73 75 92 1
Eastview FarmJul-18-2024 01:00 AM 74(75/74) 72 74 92 2
Bragg FarmJul-18-2024 01:00 AM 73(73/73) 72 73 98 2
Mammoth CaveJul-18-2024 01:00 AM 71(71/71) 71 71 99 2
Tnc Fort BayouJul-18-2024 01:00 AM 76(76/75) 75 76 99
Uapb Campus-PBJul-18-2024 01:00 AM 73(73/73) 71 73 93 5
Uapb-MariannaJul-18-2024 01:00 AM 76(77/76) 73 76 90 10
Uapb-EarleJul-18-2024 01:00 AM 76(77/76) 74 76 95 6
Silver CityJul-18-2024 01:00 AM 77(79/77) 72 77 86 8
North IssaquenaJul-18-2024 01:00 AM 75(75/75) 72 75 92 6
ShenandoahJul-18-2024 02:00 AM 74(74/73) 69 74 87 6
Reynolds HomesteadJul-18-2024 02:00 AM 70(70/70) 69 70 95 2
Uapb Point RemoveJul-18-2024 01:00 AM 75(76/75) 73 75 93 7
Uapb DewittJul-18-2024 01:00 AM 73(73/72) 71 73 96 8
AbramsJul-18-2024 01:00 AM 71(72/71) 64 71 79 6
PhillipsburgJul-18-2024 01:00 AM 69(69/69) 60 69 73 8
Centralia LakeJul-18-2024 01:00 AM 67(67/66) 61 67 83 1
KainaliuJul-17-2024 08:00 PM 72(75/67) 67 72 84 8
KukuihaeleJul-17-2024 08:00 PM 69(74/68) 67 69 92 13
Waimea PlainJul-17-2024 08:00 PM 62(69/54) 61 62 98 17
Silver SwordJul-17-2024 08:00 PM 55(65/50) 2 55 11 17
Mana HouseJul-17-2024 08:00 PM 59(66/51) 59 59 99 14
Reese CenterJul-18-2024 01:00 AM 74(77/74) 63 74 69 3
LevellandJul-18-2024 01:00 AM 73(74/73) 69 73 88 4
LehmanJul-18-2024 01:00 AM 68(72/68) 66 68 93 15
CrossroadsJul-18-2024 12:00 AM 66(66/66) 64 66 92
Willow WellsJul-18-2024 12:00 AM 64(64/64) 61 64 90
Sandy RidgeJul-18-2024 01:00 AM 73(75/73) 72 73 95 9
MaydayJul-18-2024 01:00 AM 78(80/78) 72 78 81 8
Johnson FarmJul-18-2024 12:00 AM 64(64/64) 61 64 90
Cullman-NAHRCJul-18-2024 01:00 AM 71(72/71) 71 71 99 2
Livingston-UWAJul-18-2024 01:00 AM 75(75/75) 73 75 94 1
TuskegeeJul-18-2024 01:00 AM 73(73/73) 73 73 98 2
Lovelock NNRJul-17-2024 11:00 PM 77(93/60) 35 77 22 12
Conrad Ag RcJul-18-2024 12:00 AM 71(71/71) 52 71 50
ViolettJul-18-2024 12:00 AM 75(75/75) 50 75 41
MoccasinJul-18-2024 12:00 AM 67(67/67) 50 67 54
SidneyJul-18-2024 12:00 AM 66(66/66) 57 66 74
JordanJul-18-2024 12:00 AM 68(68/68) 50 68 52
CirclevilleJul-18-2024 12:00 AM 61(61/61) 51 61 71
EphraimJul-18-2024 12:00 AM 64(64/64) 48 64 57
HoldenJul-18-2024 12:00 AM 70(70/70) 40 70 34
EnterpriseJul-18-2024 12:00 AM 76(76/76) 49 76 38
MilfordJul-18-2024 12:00 AM 77(77/77) 48 77 36
EastlandJul-18-2024 12:00 AM 67(67/67) 35 67 30
Green RiverJul-18-2024 12:00 AM 86(86/86) 42 83 21
PriceJul-18-2024 12:00 AM 75(75/75) 44 75 33
MorganJul-18-2024 12:00 AM 63(63/63) 50 63 61
Mountain HomeJul-18-2024 12:00 AM 69(69/69) 43 69 38
Blue CreekJul-18-2024 12:00 AM 72(72/72) 37 72 28
Cache JunctionJul-18-2024 12:00 AM 68(68/68) 47 68 46
NephiJul-18-2024 12:00 AM 73(73/73) 43 73 34
Alkali MesaJul-18-2024 12:00 AM 79(79/79) 36 79 21
West SummitJul-18-2024 12:00 AM 71(71/71) 35 71 26
Mccracken MesaJul-18-2024 12:00 AM 83(83/83) 42 80 24
Kyle CanyonJul-17-2024 11:00 PM 69(88/63) 37 69 31 17
Trough SpringsJul-17-2024 11:00 PM 69(84/64) 36 69 30 6
Pine NutJul-17-2024 11:00 PM 72(90/71) 39 72 30 11
CharkilnJul-17-2024 11:00 PM 70(86/55) 41 70 35
Lovell SummitJul-17-2024 11:00 PM 66(91/59) 37 66 35
Ku-NesaJul-18-2024 01:00 AM 65(67/65) 60 65 84 4
Jordan Valley CwmaJul-17-2024 11:00 PM 82(95/63) 38 80 21 15
Marble CreekJul-17-2024 11:00 PM 75(91/66) 35 75 23 16
Chicken RidgeJul-18-2024 12:00 AM 67(67/67) 40 67 37
Buffalo JumpJul-18-2024 12:00 AM 67(67/67) 44 67 44
GrantsvilleJul-18-2024 12:00 AM 75(75/75) 54 75 47
Park ValleyJul-18-2024 12:00 AM 67(67/67) 46 67 47
Split MountainJul-18-2024 12:00 AM 71(71/71) 41 71 34
Little Red FoxJul-18-2024 12:00 AM 71(71/71) 48 71 45
ManderfieldJul-18-2024 12:00 AM 62(62/62) 44 62 51
PanguitchJul-18-2024 12:00 AM 66(66/66) 47 66 51
SpookyJul-18-2024 12:00 AM 80(80/80) 40 79 24
Sand HollowJul-18-2024 12:00 AM 91(91/91) 49 87 24
Grouse CreekJul-18-2024 12:00 AM 64(64/64) 41 64 42
Cave ValleyJul-18-2024 12:00 AM 75(75/75) 44 75 34
VermillionJul-18-2024 12:00 AM 73(73/73) 41 73 31
Tule ValleyJul-18-2024 12:00 AM 82(82/82) 41 80 23
Hals CanyonJul-18-2024 12:00 AM 79(79/79) 48 79 34
GoshuteJul-18-2024 12:00 AM 74(74/74) 44 74 34
Harms WayJul-18-2024 12:00 AM 70(70/70) 34 70 26
DugwayJul-18-2024 12:00 AM 77(77/77) 45 77 32
Jornada Exp RangeJul-18-2024 12:00 AM 80(80/80) 54 80 40
Los Lunas PMCJul-18-2024 12:00 AM 71(71/71) 61 71 70
SevilletaJul-18-2024 12:00 AM 68(68/68)
AlcaldeJul-17-2024 11:00 PM 65(88/57) 59 65 82 14
Isbell FarmsJul-18-2024 01:00 AM 74(76/74) 73 74 96 4
Dee River RanchJul-18-2024 01:00 AM 74(74/74) 73 74 97 3
WedoweeJul-18-2024 01:00 AM 71(71/70) 71 71 99 3
SelmaJul-18-2024 01:00 AM 71(71/71) 70 71 97 2
Broad AcresJul-18-2024 01:00 AM 74(74/74) 73 74 98 3
Morris FarmsJul-18-2024 01:00 AM 74(74/73) 74 74 99 2
Sudduth FarmsJul-18-2024 01:00 AM 76(76/74) 74 76 94 7
Koptis FarmsJul-18-2024 01:00 AM 75(75/75) 73 75 96 3
Perdido Riv FarmsJul-18-2024 01:00 AM 73(73/72) 73 73 98 2
River Road FarmsJul-18-2024 12:00 AM 73(73/73) 73 73 98
Desert CenterJul-17-2024 10:00 PM 102(112/91) 61 103 26 13
Ford Dry LakeJul-17-2024 11:00 PM 99(111/86) 58 98 26 17
EssexJul-17-2024 11:00 PM 95(105/82) 51 92 22 16
Shadow MtnsJul-17-2024 11:00 PM 85(102/73) 40 82 20 17
Deep SpringsJul-17-2024 11:00 PM 79(96/65) 40 79 25 14
CorozalJul-18-2024 01:00 AM 79(79/79) 76 79 90 1G2.418350
Cochora RanchJul-17-2024 11:00 PM 78(89/71) 50 78 38 18
Death Valley JctJul-17-2024 11:00 PM 95(109/89) 40 91 15 19
Doe RidgeJul-17-2024 11:00 PM 68(84/54) 31 68 25 17
Eagle LakeJul-17-2024 11:00 PM 64(87/52) 37 64 37 6
Schell-OsageJul-18-2024 01:00 AM 69(69/68) 65 69 86 2
Journagan RanchJul-18-2024 01:00 AM 69(69/68) 64 69 83 4
CMRB LTARJul-18-2024 01:00 AM 64(65/64) 60 64 87 2
PlattevilleJul-18-2024 01:00 AM 59(60/59) 54 59 83 7
CPERJul-18-2024 12:00 AM 59(59/59) 51 59 75
Cook Farm Field DJul-17-2024 11:00 PM 60(88/47) 52 60 74 10
RieselJul-18-2024 01:00 AM 78(80/78) 72 78 82 7
San AngeloJul-18-2024 01:00 AM 80(82/80) 68 80 67 8
Knox CityJul-18-2024 01:00 AM 80(81/80) 66 80 63 8
VernonJul-18-2024 01:00 AM 75(78/75) 68 75 79 4
StephenvilleJul-18-2024 01:00 AM 71(72/71) 71 71 97 2
UvaldeJul-18-2024 01:00 AM 83(85/83) 66 85 57 4
WeslacoJul-18-2024 01:00 AM 82(82/82) 77 89 85 6
KingsvilleJul-18-2024 01:00 AM 82(83/82) 77 90 86 8
BeaumontJul-18-2024 01:00 AM 77(78/77) 75 77 93 3
Kanuti LakeJul-17-2024 10:00 PM 55(62/42) 10
Checkers CreekJul-17-2024 09:00 PM (/) 2.5G4.31171083
Ash ValleyJul-17-2024 11:00 PM 61(85/47) 17 61 18 20
Bodie HillsJul-17-2024 11:00 PM 66(82/48) 33 66 30 16
BuckhornJul-17-2024 11:00 PM 64(82/55) 15 64 15 19
Monocline RidgeJul-17-2024 11:00 PM 82(92/58) 50 81 32 11
French GulchJul-17-2024 11:00 PM 74(82/62) 33 74 22 9
StubblefieldJul-17-2024 11:00 PM 75(88/66) 49 75 41 14
Elsberry PMCJul-18-2024 01:00 AM 64(65/64) 62 64 94 0
Carver FarmJul-18-2024 01:00 AM 64(65/64) 63 64 98 1
Busby FarmJul-18-2024 01:00 AM 64(65/64) 63 64 98 1
Mark Twain HSJul-18-2024 01:00 AM 63(65/63) 60 63 90 1
Twin Pines ConservationJul-18-2024 01:00 AM 68(69/68) 67 68 98
Shaw Nature ReserveJul-18-2024 01:00 AM 65(70/65) 62 65 91 2
NacogdochesJul-18-2024 01:00 AM 77(78/77) 69 77 77 3
RubyJul-17-2024 11:00 PM 62(89/51) 48 62 59 17
LTSPJul-18-2024 01:00 AM 69(69/69) 66 69 92 0
Sinkin ForestJul-18-2024 01:00 AM 67(67/67) 64 67 89 2
MiraderoJul-18-2024 01:00 AM 78(78/78) 75 78 90 1.2G38240
ThoreauJul-18-2024 12:00 AM 67(67/67) 51 67 57
VallecitosJul-17-2024 11:00 PM 66(95/53) 44 66 45 13
AdobeJul-17-2024 10:00 PM 73(90/48) 30 73 20 20
RancheriaJul-17-2024 11:00 PM 65(87/53) 37 65 35 9
Alabama HillsJul-17-2024 11:00 PM 77(95/69) 41 77 28 21


SCAN Soil Conditions

  2 inch 4 inch 8 inch 20 inch 40 inch
Station: Ob Time: Moist:Temp: Moist:Temp: Moist:Temp: Moist:Temp: Moist:Temp:
LindsayJul-18-2024 12:00 -05:00 1274 870 1074 768 1462
Orchard Range SiteJul-18-2024 12:00 -05:00 094 594 989 780 573
Table MountainJul-18-2024 12:00 -05:00 578 2478 4375 1870 1060
Rodgers FarmJul-18-2024 01:00 -05:00 2774 3276 3677 4974 4969
Crescent Lake No1Jul-18-2024 01:00 -05:00 1566 1669 1968 1165 462
Wabeno #1Jul-18-2024 01:00 -05:00 1959 2259 1558 1456
MasonJul-18-2024 01:00 -05:00 1576 1475 1378 1976 3073
Princeton #1Jul-18-2024 01:00 -05:00 3679 3479 3579 3577 4673
Bushland #1Jul-18-2024 01:00 -05:00 282 1484 2282 2375 3470
Tidewater #1Jul-18-2024 02:00 -05:00 2681 3181 3181 3580 4076
Wakulla #1Jul-18-2024 02:00 -05:00 379 679 581 481 278
Geneva #1Jul-18-2024 02:00 -05:00 3073 3174 3074 3273 2869
Sellers Lake #1Jul-18-2024 02:00 -05:00 580 682 783 684 683
Watkinsville #1Jul-18-2024 02:00 -05:00 483 685 686 1684 2078
Molly Caren #1Jul-18-2024 02:00 -05:00 4074 4075 3975 4372 1666
Adams Ranch #1Jul-18-2024 12:00 -05:00 682 380 1085 978 673
Prairie View #1Jul-18-2024 01:00 -05:00 3581 2481 2681 2879 4177
Nunn #1Jul-18-2024 12:00 -05:00 1173 1777 1978 1670 1868
Torrington #1Jul-18-2024 12:00 -05:00 381 385 485 579 471
Fort Assiniboine #1Jul-18-2024 12:00 -05:00 577 677 2274 2465 2760
Mandan #1Jul-18-2024 02:00 -05:00 1364 1764 1462 3159 3553
Lind #1Jul-17-2024 11:00 -05:00 190 187 980 676 1366
Fort Reno #1Jul-18-2024 01:00 -05:00 3076 3778 3576 2773 3370
Goodwin Ck PastureJul-18-2024 01:00 -05:00 1578 1479 1980 3177 2973
Goodwin Ck TimberJul-18-2024 01:00 -05:00 2074 2378 1578 3676 1573
Walnut Gulch #1Jul-17-2024 11:00 -05:00
Little RiverJul-18-2024 02:00 -05:00 1284 685 787 1386 2882
Mahantango CkJul-18-2024 02:00 -05:00 976 1278 1879 1677 872
Uapb-Lonoke FarmJul-18-2024 01:00 -05:00 83 81 83 4081 78
AmesJul-18-2024 01:00 -05:00 2567 3368 3967 5363 4560
Beasley LakeJul-18-2024 01:00 -05:00 3188 3087 3787 5283 3578
OnwardJul-18-2024 01:00 -05:00 3485 3985 4184 4181 4175
TunicaJul-18-2024 01:00 -05:00 2880 3680 4380 5379 6375
VanceJul-18-2024 01:00 -05:00
Rock Springs PaJul-18-2024 02:00 -05:00 1473 2074 1574 2572 3267
Pee DeeJul-18-2024 02:00 -05:00 2283 2484 1582 1982 2180
Youmans FarmJul-18-2024 02:00 -05:00 2483 2083 2385 3184 3981
N Piedmont ArecJul-18-2024 02:00 -05:00 2280 2782 3983 3678 3872
Mount MansfieldJul-18-2024 02:00 -05:00 5961 5561 5160 4360 4157
Lye BrookJul-18-2024 02:00 -05:00 1764 2663 3161 2057 954
Mascoma RiverJul-18-2024 02:00 -05:00 3256 3454
PerthshireJul-18-2024 01:00 -05:00 2286 3487 2187 3383 6077
SpickardJul-18-2024 01:00 -05:00 1973 3375 3072 4173 5069
DexterJul-18-2024 01:00 -05:00 3378 2979 2881 3180 3076
Powder MillJul-18-2024 02:00 -05:00 780 583 381 1379 2273
Glacial RidgeJul-10-2024 12:00 -05:00 2965 3864 3463 3060 57
Everglades ARSJul-18-2024 02:00 -05:00 2785 1886
WtarsJul-18-2024 01:00 -05:00 2779 3681 1883 3581 3576
HodgesJul-18-2024 01:00 -05:00 1479 1980 1781 3179 2077
Stanley FarmJul-18-2024 01:00 -05:00 1379 1478 2080 2577 3774
AAMU-JTGJul-18-2024 01:00 -05:00 2580 3182 3483 3280 4175
Mt VernonJul-18-2024 01:00 -05:00 3674 3276 3377 4776
Powell GardensJul-18-2024 01:00 -05:00 2480 4380 5080 4180 4174
StarkvilleJul-18-2024 01:00 -05:00 2183 3283 3483 4181 5979
Bosque SecoJul-18-2024 01:00 -05:00 1780 1783
SHAGBARK HILLSJul-18-2024 01:00 -05:00 73 75 77 73 67
Hubbard BrookJul-18-2024 02:00 -05:00 1866 2765 2463 2359 2955
ScottJul-18-2024 01:00 -05:00 3282 4583 4685 5283 4079
Eros Data CenterJul-18-2024 01:00 -05:00 2272 2574 2674 3570 3964
McAllister FarmJul-18-2024 01:00 -05:00 2282 1282 2083 2380 3976
Allen FarmsJul-18-2024 01:00 -05:00 1177 1377 2177 1275 2471
Eastview FarmJul-18-2024 01:00 -05:00 2273 2573 2472 2469 2959
Bragg FarmJul-18-2024 01:00 -05:00 379 3481 2881 3879 3075
Mammoth CaveJul-18-2024 01:00 -05:00 2876 3277 3175 5474 4970
Tnc Fort BayouJul-18-2024 01:00 -05:00 80 2782 3184 3084 3083
Uapb Campus-PBJul-18-2024 01:00 -05:00 1081 1181 1781 3180 3478
Uapb-MariannaJul-18-2024 01:00 -05:00 2581 1981 1981 4579 4975
Uapb-EarleJul-18-2024 01:00 -05:00 4079 3879 4080 3878 4175
Silver CityJul-18-2024 01:00 -05:00 1688 1690 2689 4884 5179
North IssaquenaJul-18-2024 01:00 -05:00 83 4094 80 76 5281
ShenandoahJul-18-2024 02:00 -05:00 2675 3078 2976 3776 3970
Reynolds HomesteadJul-18-2024 02:00 -05:00 1480 1781 2182 1778 4175
Uapb Point RemoveJul-18-2024 01:00 -05:00 2782 3183 3183 3881 2278
Uapb DewittJul-18-2024 01:00 -05:00 2879 1582 1386 4283 4880
AbramsJul-18-2024 01:00 -05:00 1679 2180 2580 3078 1775
PhillipsburgJul-18-2024 01:00 -05:00 1076 1378 1776 1572 1868
Centralia LakeJul-18-2024 01:00 -05:00 3472 3773 4174 4171 4267
KainaliuJul-17-2024 08:00 -05:00 3575 2575 4374
KukuihaeleJul-17-2024 08:00 -05:00 2574 2875 3075 4174
Waimea PlainJul-17-2024 08:00 -05:00 2370 2968 2767 2867
Silver SwordJul-17-2024 08:00 -05:00 1071 1567 761
Mana HouseJul-17-2024 08:00 -05:00 671 770 3166 1665
Reese CenterJul-18-2024 01:00 -05:00 1290 1790 1691 1688 3782
LevellandJul-18-2024 01:00 -05:00 789 1390 1190 1383 1377
LehmanJul-18-2024 01:00 -05:00 580 886 991 1088 1383
CrossroadsJul-18-2024 12:00 -05:00 591 592 691 1487 1380
Willow WellsJul-18-2024 12:00 -05:00 1577 1179 589 888 484
Sandy RidgeJul-18-2024 01:00 -05:00 2085 2286 2980 86 1185
MaydayJul-18-2024 01:00 -05:00 2080 4782 81 6978 76
Johnson FarmJul-18-2024 12:00 -05:00 1978 2479 2879 2171 1367
Cullman-NAHRCJul-18-2024 01:00 -05:00 1875 2275 1975 2874 2472
Livingston-UWAJul-18-2024 01:00 -05:00 3882 4385 4487 4786 6482
TuskegeeJul-18-2024 01:00 -05:00 1280 781 881 2181 2778
Lovelock NNRJul-17-2024 11:00 -05:00 586 1985 4080
Conrad Ag RcJul-18-2024 12:00 -05:00 1481 2480 2680 3568 2563
ViolettJul-18-2024 12:00 -05:00 885 1988 1985 1373 664
MoccasinJul-18-2024 12:00 -05:00 1472 1973 2270 1564 1060
SidneyJul-18-2024 12:00 -05:00 1273 1572 2069 1665 2259
JordanJul-18-2024 12:00 -05:00 677 2081 2779 2472 1965
CirclevilleJul-18-2024 12:00 -05:00 382 681 1070 1564
EphraimJul-18-2024 12:00 -05:00 777 1476 2371 2567 2362
HoldenJul-18-2024 12:00 -05:00 487 589 584 1480 1271
EnterpriseJul-18-2024 12:00 -05:00 885 585 1981 1579 1170
MilfordJul-18-2024 12:00 -05:00 690 1286 1180 75 69
EastlandJul-18-2024 12:00 -05:00 976 1176 1176 2572 1266
Green RiverJul-18-2024 12:00 -05:00 1292 1993 1593 97 581
PriceJul-18-2024 12:00 -05:00 1276 1679 2280 1676 1172
MorganJul-18-2024 12:00 -05:00 2278 2678 1177 2369 2965
Mountain HomeJul-18-2024 12:00 -05:00 379 1277 1375 1966
Blue CreekJul-18-2024 12:00 -05:00 882 1384 2082 2374 2265
Cache JunctionJul-18-2024 12:00 -05:00 1182 1782 2578 3770 3963
NephiJul-18-2024 12:00 -05:00 680 1678 1676 1971 765
Alkali MesaJul-18-2024 12:00 -05:00 677 679 1779 1976 35
West SummitJul-18-2024 12:00 -05:00 678 1277 1776 1971 1966
Mccracken MesaJul-18-2024 12:00 -05:00 1187 1688 1888 1879 874
Kyle CanyonJul-17-2024 11:00 -05:00 480 683 283 675 670
Trough SpringsJul-17-2024 11:00 -05:00 1078 976 1172 1366 1068
Pine NutJul-17-2024 11:00 -05:00 782 682 683 1274 469
CharkilnJul-17-2024 11:00 -05:00 1071 671 1369 2365 2361
Lovell SummitJul-17-2024 11:00 -05:00 576 1574 1870
Ku-NesaJul-18-2024 01:00 -05:00 3583 3178 3780 4875 6670
Jordan Valley CwmaJul-17-2024 11:00 -05:00 1290 91 3186
Marble CreekJul-17-2024 11:00 -05:00 389 687 686 277 774
Chicken RidgeJul-18-2024 12:00 -05:00 264 864 963 1360 1255
Buffalo JumpJul-18-2024 12:00 -05:00 1169 1170 1069 1065
GrantsvilleJul-18-2024 12:00 -05:00 090 1088 2182 76 68
Park ValleyJul-18-2024 12:00 -05:00 182 783 480 74 71
Split MountainJul-18-2024 12:00 -05:00 391 1590 1487 1380 1173
Little Red FoxJul-18-2024 12:00 -05:00 478 1482 1979 2370 2065
ManderfieldJul-18-2024 12:00 -05:00 682 678 1877 1272 668
PanguitchJul-18-2024 12:00 -05:00 967 2069 1465 2162 4157
SpookyJul-18-2024 12:00 -05:00 493 290 386 782 777
Sand HollowJul-18-2024 12:00 -05:00 1105 2107 1100 092 183
Grouse CreekJul-18-2024 12:00 -05:00 273 973 1473 1768 1665
Cave ValleyJul-18-2024 12:00 -05:00 182 187 285 275 171
VermillionJul-18-2024 12:00 -05:00 182 082 576 570 964
Tule ValleyJul-18-2024 12:00 -05:00 588 489 1189 85 82
Hals CanyonJul-18-2024 12:00 -05:00 385 386 486 82 573
GoshuteJul-18-2024 12:00 -05:00 780 74 80 74 70
Harms WayJul-18-2024 12:00 -05:00 479 1378 1479 1572 765
DugwayJul-18-2024 12:00 -05:00 86 87 85 75 67
Jornada Exp RangeJul-18-2024 12:00 -05:00 295 396 296 388 582
Los Lunas PMCJul-18-2024 12:00 -05:00
SevilletaJul-18-2024 12:00 -05:00 680 1086 1090 785 680
AlcaldeJul-17-2024 11:00 -05:00 87 91 87 80 71
Isbell FarmsJul-18-2024 01:00 -05:00 92 92 4887 5885 5779
Dee River RanchJul-18-2024 01:00 -05:00 80 80 81 79 77
WedoweeJul-18-2024 01:00 -05:00 1076 1578 85 1479
SelmaJul-18-2024 01:00 -05:00 283 286 387 786 783
Broad AcresJul-18-2024 01:00 -05:00 4480 3880 2980 4180 4477
Morris FarmsJul-18-2024 01:00 -05:00 2182 3382 2383 2983 2880
Sudduth FarmsJul-18-2024 01:00 -05:00 1678 1679 1478 1677 1374
Koptis FarmsJul-18-2024 01:00 -05:00 92 91 88 85
Perdido Riv FarmsJul-18-2024 01:00 -05:00 2585 3285 3583
River Road FarmsJul-18-2024 12:00 -05:00 1280 1381 2480 2282 79
Desert CenterJul-17-2024 10:00 -05:00
Ford Dry LakeJul-17-2024 11:00 -05:00 4110 10122 16102 1096
EssexJul-17-2024 11:00 -05:00 105 103 109 96 94
Shadow MtnsJul-17-2024 11:00 -05:00 096 5103 6102 1293 1687
Deep SpringsJul-17-2024 11:00 -05:00 1286 1490 889 1080 1173
CorozalJul-18-2024 01:00 -05:00 3583 4384 4383 5082 4882
Cochora RanchJul-17-2024 11:00 -05:00 497 3102 1098 993 1589
Death Valley JctJul-17-2024 11:00 -05:00 3102 6108 12109 24102 95
Doe RidgeJul-17-2024 11:00 -05:00 183 280 176 371 1370
Eagle LakeJul-17-2024 11:00 -05:00 477 383 381 375 468
Schell-OsageJul-18-2024 01:00 -05:00 3679 4282 3282 5478 6574
Journagan RanchJul-18-2024 01:00 -05:00 271 2774 2876 4076 3673
CMRB LTARJul-18-2024 01:00 -05:00 3676 3777 3377 5476 5069
PlattevilleJul-18-2024 01:00 -05:00 4467 4268 3968 4467 5263
CPERJul-18-2024 12:00 -05:00 1377 877 1778 1273 1568
Cook Farm Field DJul-17-2024 11:00 -05:00 1171 1568 1667 2164 2858
RieselJul-18-2024 01:00 -05:00 1987 2489 4987 83 77
San AngeloJul-18-2024 01:00 -05:00 1390 990 1990 2786 2482
Knox CityJul-18-2024 01:00 -05:00 1487 1589 1989 2185 1782
VernonJul-18-2024 01:00 -05:00 1185 87 82 77
StephenvilleJul-18-2024 01:00 -05:00 780 981 1283 3683 2680
UvaldeJul-18-2024 01:00 -05:00 1688 2290 3390 990 3483
WeslacoJul-18-2024 01:00 -05:00 1986 2387 3087 2987 2486
KingsvilleJul-18-2024 01:00 -05:00 2088 1688 1688 4187
BeaumontJul-18-2024 01:00 -05:00 4586 4786 4486 4785 5381
Kanuti LakeJul-17-2024 10:00 -05:00 039 037 3336 3833 2232
Checkers CreekJul-17-2024 09:00 -05:00
Ash ValleyJul-17-2024 11:00 -05:00 1282 985 1780 71
Bodie HillsJul-17-2024 11:00 -05:00 267 273 766 659 457
BuckhornJul-17-2024 11:00 -05:00 1171 2171 2269 2866
Monocline RidgeJul-17-2024 11:00 -05:00 10108 19106 31104 3699 3492
French GulchJul-17-2024 11:00 -05:00 091 693 1090 1683 2074
StubblefieldJul-17-2024 11:00 -05:00 690 1492 1390 2485 1678
Elsberry PMCJul-18-2024 01:00 -05:00 4076 3676 3778 4376 5071
Carver FarmJul-18-2024 01:00 -05:00 3174 3675 3175 3273 2871
Busby FarmJul-18-2024 01:00 -05:00 3973 4174 3975 4473 5670
Mark Twain HSJul-18-2024 01:00 -05:00 3375 1575 4076 5478 5869
Twin Pines ConservationJul-18-2024 01:00 -05:00 2473 2174 2573 2573 2772
Shaw Nature ReserveJul-18-2024 01:00 -05:00 3877 3979 4480 5477 6173
NacogdochesJul-18-2024 01:00 -05:00 891 91 92 2290 2685
RubyJul-17-2024 11:00 -05:00 1073 1871 2069 2463 1358
LTSPJul-18-2024 01:00 -05:00 1974 675 1676 2874 4271
Sinkin ForestJul-18-2024 01:00 -05:00 1576 2377 1878 3877 4873
MiraderoJul-18-2024 01:00 -05:00 2786 3186 4086 4285 5185
ThoreauJul-18-2024 12:00 -05:00 82 82 80 76 72
VallecitosJul-17-2024 11:00 -05:00 394 1592 2189 2585 2877
AdobeJul-17-2024 10:00 -05:00 086 084 179 271 2165
RancheriaJul-17-2024 11:00 -05:00 272 774 471 464 760
Alabama HillsJul-17-2024 11:00 -05:00 88 80